Time;durP1;ratioP1;P1;durP2;ratioP2;P2;SDS_P1;SDS_P2;PMS_P1;PMS_P2;Temp;Humidity;BMP_temperature;BMP_pressure;BME280_temperature;BME280_humidity;BME280_pressure;Samples;Min_cycle;Max_cycle;Signal;HPM_P1;HPM_P2
2021/06/22 00:01:14;;;;;;;44.85;15.63;;;;;;;21.51;94.81;99372.91;2825134;84;21066;-67
2021/06/22 00:05:17;;;;;;;36.40;13.95;;;;;;;21.45;93.40;99377.02;2825583;83;21014;-68
2021/06/22 00:09:19;;;;;;;41.50;11.95;;;;;;;21.36;93.11;99377.81;2825165;84;21634;-67
2021/06/22 00:13:21;;;;;;;41.10;14.35;;;;;;;21.33;93.10;99367.44;2824785;84;21045;-67
2021/06/22 00:17:22;;;;;;;42.45;14.78;;;;;;;21.28;93.02;99353.75;2824724;84;21102;-67
2021/06/22 00:21:24;;;;;;;38.35;12.43;;;;;;;21.20;92.88;99366.47;2825222;84;21033;-67
2021/06/22 00:25:26;;;;;;;31.42;12.47;;;;;;;21.18;93.68;99373.97;2840120;81;21054;-67
2021/06/22 00:29:28;;;;;;;40.55;13.00;;;;;;;21.21;94.20;99385.70;2896688;80;20990;-68
2021/06/22 00:33:30;;;;;;;26.12;12.23;;;;;;;21.17;93.78;99400.71;2939579;80;21022;-67
2021/06/22 00:37:32;;;;;;;41.18;12.82;;;;;;;21.12;93.39;99407.30;2942012;80;21014;-67
2021/06/22 00:41:33;;;;;;;48.83;24.52;;;;;;;21.08;94.17;99402.84;2899247;82;21022;-67
2021/06/22 00:45:35;;;;;;;84.58;41.65;;;;;;;21.05;93.71;99399.22;2877195;82;20986;-67
2021/06/22 00:49:38;;;;;;;83.78;49.93;;;;;;;20.95;93.48;99394.28;2898673;82;21069;-67
2021/06/22 00:53:40;;;;;;;45.03;23.25;;;;;;;20.92;93.62;99401.98;2899432;82;21007;-67
2021/06/22 00:57:42;;;;;;;76.65;31.27;;;;;;;20.86;92.63;99406.41;2899238;82;21086;-67
2021/06/22 01:01:44;;;;;;;74.58;40.28;;;;;;;20.80;93.59;99405.38;2899305;82;21058;-67
2021/06/22 01:05:46;;;;;;;97.70;45.17;;;;;;;20.81;93.78;99402.98;2898648;82;20959;-67
2021/06/22 01:09:47;;;;;;;65.70;40.83;;;;;;;20.80;92.23;99395.08;2899236;82;20994;-66
2021/06/22 01:13:49;;;;;;;59.13;26.90;;;;;;;20.76;93.55;99402.78;2899080;82;21776;-67
2021/06/22 01:18:00;;;;;;;64.27;22.45;;;;;;;20.75;92.86;99388.12;2898668;82;21038;-67
2021/06/22 01:22:05;;;;;;;47.83;21.15;;;;;;;20.56;91.72;99389.34;2899477;82;21428;-67
2021/06/22 01:26:07;;;;;;;44.55;21.93;;;;;;;20.44;92.82;99392.38;2899620;82;21579;-66
2021/06/22 01:30:10;;;;;;;48.78;25.12;;;;;;;20.47;94.62;99397.39;2899245;82;21038;-67
2021/06/22 01:34:12;;;;;;;45.35;20.68;;;;;;;20.54;94.44;99394.97;2899179;82;20994;-67
2021/06/22 01:38:14;;;;;;;42.65;20.88;;;;;;;20.54;93.75;99403.58;2899292;82;21042;-67
2021/06/22 01:42:16;;;;;;;38.98;17.70;;;;;;;20.53;94.42;99412.19;2899181;82;21045;-67
2021/06/22 01:46:18;;;;;;;42.70;17.67;;;;;;;20.54;94.57;99419.79;2929092;80;20959;-67
2021/06/22 01:50:21;;;;;;;33.33;16.62;;;;;;;20.62;95.02;99437.11;2913145;80;21030;-67
2021/06/22 01:54:23;;;;;;;34.00;17.12;;;;;;;20.66;95.14;99435.66;2934228;80;20960;-68
2021/06/22 01:58:25;;;;;;;30.50;16.52;;;;;;;20.68;94.51;99441.67;2950374;80;21015;-67
2021/06/22 02:02:26;;;;;;;35.35;16.32;;;;;;;20.70;94.35;99453.61;2909034;80;21590;-67
2021/06/22 02:06:28;;;;;;;36.20;15.58;;;;;;;20.73;94.75;99465.33;2899277;82;21025;-67
2021/06/22 02:10:30;;;;;;;27.02;15.30;;;;;;;20.74;93.94;99472.94;2899169;82;21009;-67
2021/06/22 02:14:31;;;;;;;38.83;20.60;;;;;;;20.70;93.45;99479.27;2899089;82;21085;-67
2021/06/22 02:18:33;;;;;;;35.95;19.37;;;;;;;20.64;94.49;99472.88;2899504;82;20974;-68
2021/06/22 02:22:36;;;;;;;37.20;16.57;;;;;;;20.64;95.67;99474.22;2899437;82;21480;-68
2021/06/22 02:26:37;;;;;;;31.65;18.75;;;;;;;20.67;97.05;99483.75;2899455;82;21010;-68
2021/06/22 02:30:41;;;;;;;29.63;17.77;;;;;;;20.71;98.27;99489.04;2883068;82;21066;-68
2021/06/22 02:34:43;;;;;;;45.75;22.22;;;;;;;20.79;98.66;99477.17;2876639;82;21010;-67
2021/06/22 02:38:45;;;;;;;41.23;18.52;;;;;;;20.83;98.90;99481.98;2822999;84;21004;-68
2021/06/22 02:42:48;;;;;;;33.45;17.92;;;;;;;20.84;98.69;99477.41;2822877;84;21042;-69
2021/06/22 02:46:49;;;;;;;38.92;21.33;;;;;;;20.80;98.81;99464.84;2852610;83;21011;-68
2021/06/22 02:50:51;;;;;;;47.70;20.75;;;;;;;20.81;99.16;99465.66;2822942;84;21030;-69
2021/06/22 02:54:53;;;;;;;33.23;19.82;;;;;;;20.79;99.18;99463.16;2823081;84;21268;-68
2021/06/22 02:58:54;;;;;;;44.53;22.22;;;;;;;20.77;99.07;99465.24;2866687;82;21034;-68
2021/06/22 03:02:57;;;;;;;30.70;23.73;;;;;;;20.77;99.41;99463.05;2864104;83;21062;-67
2021/06/22 03:06:59;;;;;;;46.42;23.10;;;;;;;20.82;99.40;99472.72;2822288;84;20971;-68
2021/06/22 03:11:01;;;;;;;40.83;24.43;;;;;;;20.87;99.12;99462.63;2854317;83;21023;-69
2021/06/22 03:15:05;;;;;;;38.83;23.75;;;;;;;20.90;99.11;99468.44;2901238;82;21086;-69
2021/06/22 03:19:07;;;;;;;33.95;21.68;;;;;;;20.98;98.92;99474.13;2870794;83;21062;-68
2021/06/22 03:23:09;;;;;;;39.53;21.90;;;;;;;21.02;98.73;99467.75;2901741;82;21598;-67
2021/06/22 03:27:10;;;;;;;34.15;22.13;;;;;;;21.15;99.33;99463.64;2823271;83;21523;-67
2021/06/22 03:31:12;;;;;;;32.70;23.98;;;;;;;21.34;98.97;99472.72;2822112;83;21030;-67
2021/06/22 03:35:15;;;;;;;41.80;22.48;;;;;;;21.50;98.28;99470.52;2770733;84;21116;-68
2021/06/22 03:39:17;;;;;;;33.48;22.87;;;;;;;21.57;97.25;99467.77;2770723;86;21038;-67
2021/06/22 03:43:21;;;;;;;32.35;24.20;;;;;;;21.67;97.56;99469.52;2794576;85;21272;-69
2021/06/22 03:47:23;;;;;;;28.83;22.52;;;;;;;21.81;97.44;99468.37;2810936;84;21046;-68
2021/06/22 03:51:25;;;;;;;34.70;23.75;;;;;;;21.93;97.48;99467.65;2822417;84;21579;-68
2021/06/22 03:55:27;;;;;;;31.25;22.50;;;;;;;22.03;97.01;99475.27;2864483;83;21058;-68
2021/06/22 03:59:29;;;;;;;29.77;22.65;;;;;;;22.11;97.28;99481.78;2864963;83;21037;-68
2021/06/22 04:03:31;;;;;;;29.15;17.57;;;;;;;22.23;97.34;99483.23;2823340;84;21527;-68
2021/06/22 04:07:33;;;;;;;27.22;21.35;;;;;;;22.21;96.70;99487.51;2822945;84;21579;-67
2021/06/22 04:11:34;;;;;;;22.77;17.37;;;;;;;22.27;97.57;99496.63;2865362;83;21057;-68
2021/06/22 04:15:36;;;;;;;32.13;17.25;;;;;;;22.41;97.74;99504.10;2886234;81;21216;-68
2021/06/22 04:19:38;;;;;;;37.90;17.62;;;;;;;22.60;97.45;99498.73;2800706;84;21658;-68
2021/06/22 04:23:40;;;;;;;18.35;16.15;;;;;;;22.79;97.90;99499.05;2776786;84;21019;-68
2021/06/22 04:27:42;;;;;;;26.57;18.70;;;;;;;23.21;97.99;99503.77;2776676;85;21559;-68
2021/06/22 04:31:44;;;;;;;33.50;24.50;;;;;;;23.76;96.47;99493.02;2781252;84;20999;-68
2021/06/22 04:35:45;;;;;;;24.15;17.98;;;;;;;24.21;93.60;99496.58;2782191;85;21030;-68
2021/06/22 04:39:47;;;;;;;28.02;22.37;;;;;;;24.64;90.57;99494.56;2782370;85;21042;-67
2021/06/22 04:43:49;;;;;;;27.27;21.52;;;;;;;25.17;89.17;99500.56;2782864;85;21085;-67
2021/06/22 04:47:51;;;;;;;21.23;18.32;;;;;;;25.41;87.57;99505.38;2782312;85;21516;-68
2021/06/22 04:51:52;;;;;;;28.30;20.02;;;;;;;25.66;85.14;99506.42;2826479;84;21026;-68
2021/06/22 04:55:54;;;;;;;18.85;16.02;;;;;;;25.90;84.71;99514.97;2847674;82;20975;-67
2021/06/22 04:59:57;;;;;;;22.10;15.90;;;;;;;25.94;83.76;99514.24;2830420;84;21002;-67
2021/06/22 05:04:00;;;;;;;19.95;9.90;;;;;;;26.07;83.87;99523.98;2831550;84;20986;-66
2021/06/22 05:08:03;;;;;;;10.85;9.08;;;;;;;25.98;83.36;99532.30;2876490;82;21026;-67
2021/06/22 05:12:06;;;;;;;12.45;7.65;;;;;;;25.77;81.79;99522.93;2876817;82;20975;-67
2021/06/22 05:16:08;;;;;;;8.63;6.70;;;;;;;25.44;81.77;99524.47;2876340;82;21069;-67
2021/06/22 05:20:11;;;;;;;11.22;7.65;;;;;;;25.21;83.77;99513.97;2876506;82;21010;-67
2021/06/22 05:24:13;;;;;;;13.40;6.05;;;;;;;25.06;82.76;99507.69;2876395;82;21026;-67
2021/06/22 05:28:15;;;;;;;11.03;6.40;;;;;;;24.99;83.82;99518.70;2897781;81;20979;-67
2021/06/22 05:32:17;;;;;;;6.83;5.50;;;;;;;24.90;83.56;99531.03;2856335;82;21023;-67
2021/06/22 05:36:19;;;;;;;7.03;5.78;;;;;;;24.67;82.48;99549.82;2870336;82;21029;-67
2021/06/22 05:40:20;;;;;;;8.78;6.03;;;;;;;24.49;83.92;99561.66;2887060;81;21527;-67
2021/06/22 05:44:22;;;;;;;19.62;6.78;;;;;;;24.44;85.10;99560.70;2806297;85;21083;-67
2021/06/22 05:48:24;;;;;;;5.67;5.05;;;;;;;24.38;84.09;99559.23;2842154;82;21058;-67
2021/06/22 05:52:26;;;;;;;8.98;5.45;;;;;;;24.56;85.70;99566.14;2903165;82;21010;-66
2021/06/22 05:56:27;;;;;;;6.12;5.42;;;;;;;24.85;83.89;99561.66;2903742;81;21003;-67
2021/06/22 06:00:32;;;;;;;11.83;5.25;;;;;;;25.10;83.31;99563.27;2903978;80;21054;-67
2021/06/22 06:04:34;;;;;;;10.72;5.92;;;;;;;25.15;82.28;99557.92;2903878;80;20991;-67
2021/06/22 06:08:36;;;;;;;6.17;5.67;;;;;;;25.20;82.25;99568.94;2903431;82;21539;-66
2021/06/22 06:12:39;;;;;;;12.28;6.92;;;;;;;25.27;79.94;99580.22;2904018;82;21011;-66
2021/06/22 06:16:41;;;;;;;6.37;5.25;;;;;;;25.16;80.52;99567.77;2903772;81;21066;-67
2021/06/22 06:20:42;;;;;;;7.03;6.17;;;;;;;25.14;80.05;99554.91;2904054;82;20967;-66
2021/06/22 06:24:45;;;;;;;7.95;6.47;;;;;;;25.31;79.69;99552.80;2878722;82;21078;-66
2021/06/22 06:28:51;;;;;;;8.75;4.87;;;;;;;25.68;79.87;99527.95;2854660;83;20971;-66
2021/06/22 06:32:53;;;;;;;16.37;6.33;;;;;;;25.94;77.12;99528.38;2879112;82;21034;-66
2021/06/22 06:36:54;;;;;;;7.15;5.42;;;;;;;26.23;76.86;99514.73;2879489;82;21098;-66
2021/06/22 06:40:57;;;;;;;7.40;6.22;;;;;;;26.17;75.32;99528.80;2879893;82;20998;-66
2021/06/22 06:44:58;;;;;;;7.10;6.10;;;;;;;25.83;75.24;99521.94;2905967;81;21053;-67
2021/06/22 06:49:00;;;;;;;7.10;6.12;;;;;;;25.58;78.25;99520.42;2929840;81;21070;-66
2021/06/22 06:53:01;;;;;;;8.13;6.45;;;;;;;25.73;77.63;99547.09;2929926;81;21780;-66
2021/06/22 06:57:04;;;;;;;8.75;6.00;;;;;;;25.99;77.73;99547.56;2912619;81;21014;-66
2021/06/22 07:01:06;;;;;;;8.15;6.87;;;;;;;26.18;76.38;99544.08;2863040;81;21093;-66
2021/06/22 07:05:10;;;;;;;7.83;5.45;;;;;;;26.41;77.09;99548.25;2879438;82;21029;-66
2021/06/22 07:09:11;;;;;;;10.48;6.37;;;;;;;26.30;75.86;99565.80;2879073;81;21014;-66
2021/06/22 07:13:15;;;;;;;11.97;7.62;;;;;;;26.23;75.74;99591.05;2898792;81;20990;-65
2021/06/22 07:17:16;;;;;;;9.00;6.15;;;;;;;26.18;76.06;99596.41;2927531;81;21051;-65
2021/06/22 07:21:19;;;;;;;11.05;5.53;;;;;;;26.17;76.45;99600.22;2929653;81;21002;-65
2021/06/22 07:25:25;;;;;;;10.70;6.55;;;;;;;26.07;76.58;99619.36;2930052;81;20971;-65
2021/06/22 07:29:24;;;;;;;7.25;6.22;;;;;;;25.80;74.83;99613.16;2927577;80;21522;-66
2021/06/22 07:33:26;;;;;;;7.47;6.72;;;;;;;25.53;76.69;99620.52;2909616;81;21058;-66
2021/06/22 07:37:27;;;;;;;7.22;5.87;;;;;;;25.39;78.06;99625.93;2927087;81;21088;-67
2021/06/22 07:41:29;;;;;;;7.50;5.97;;;;;;;25.21;77.82;99625.53;2928088;81;21515;-66
2021/06/22 07:45:32;;;;;;;9.58;6.80;;;;;;;24.85;77.83;99637.81;2929215;81;20999;-67
2021/06/22 07:49:34;;;;;;;10.88;6.33;;;;;;;24.71;79.92;99636.35;2929220;81;21045;-68
2021/06/22 07:53:39;;;;;;;6.97;6.37;;;;;;;24.63;80.03;99646.52;2897717;81;20994;-65
2021/06/22 07:57:51;;;;;;;10.98;8.15;;;;;;;24.60;80.66;99655.67;2878984;81;21003;-67
2021/06/22 08:01:54;;;;;;;10.58;8.05;;;;;;;24.61;81.94;99642.37;2864797;81;21041;-67
2021/06/22 08:05:59;;;;;;;12.73;9.50;;;;;;;24.49;80.94;99644.56;2853128;82;21534;-67
2021/06/22 08:10:03;;;;;;;7.95;6.85;;;;;;;24.49;81.89;99660.03;2851918;82;20965;-67
2021/06/22 08:14:12;;;;;;;9.23;7.17;;;;;;;24.48;82.07;99674.68;2865770;82;21033;-67
2021/06/22 08:18:21;;;;;;;11.45;8.28;;;;;;;24.46;82.48;99670.83;2857168;81;21136;-66
2021/06/22 08:22:26;;;;;;;13.50;8.58;;;;;;;24.55;83.13;99659.08;2855229;82;21026;-67
2021/06/22 08:26:27;;;;;;;;;;;;;;;24.77;83.38;99658.58;2850378;82;21069;-65
2021/06/22 08:30:30;;;;;;;13.45;9.48;;;;;;;24.86;81.47;99661.23;2872924;81;20143;-65
2021/06/22 08:34:32;;;;;;;10.23;8.70;;;;;;;24.88;82.28;99658.28;2845665;82;21037;-66
2021/06/22 08:38:34;;;;;;;12.82;9.38;;;;;;;24.89;81.31;99670.81;2834793;81;21013;-66
2021/06/22 08:42:40;;;;;;;10.45;9.38;;;;;;;24.89;82.15;99677.62;2910522;81;20958;-67
2021/06/22 08:46:44;;;;;;;10.93;9.78;;;;;;;24.85;82.31;99681.33;2903552;81;21026;-67
2021/06/22 08:50:47;;;;;;;16.00;9.30;;;;;;;24.76;82.60;99679.48;2928759;81;21034;-67
2021/06/22 08:54:49;;;;;;;16.27;12.45;;;;;;;24.61;83.36;99692.15;2906925;81;20974;-67
2021/06/22 08:58:51;;;;;;;10.85;9.75;;;;;;;24.58;83.72;99699.42;2899194;81;21014;-65
2021/06/22 09:03:08;;;;;;;14.05;11.33;;;;;;;24.45;83.92;99702.33;2904511;81;21074;-67
2021/06/22 09:07:11;;;;;;;17.00;12.13;;;;;;;24.25;84.55;99696.11;2895105;81;21078;-66
2021/06/22 09:11:17;;;;;;;20.27;13.83;;;;;;;24.02;84.93;99700.09;2883357;81;20998;-67
2021/06/22 09:15:26;;;;;;;21.80;14.05;;;;;;;23.87;86.13;99701.83;2909014;81;21018;-66
2021/06/22 09:19:30;;;;;;;22.52;16.32;;;;;;;23.75;87.12;99701.23;2928523;81;21519;-66
2021/06/22 09:23:38;;;;;;;18.37;16.42;;;;;;;23.60;88.21;99690.77;2928478;81;21033;-66
2021/06/22 09:27:52;;;;;;;14.80;11.35;;;;;;;23.54;89.48;99699.28;2928593;81;21843;-66
2021/06/22 09:31:59;;;;;;;22.82;18.07;;;;;;;23.46;90.84;99703.66;2902196;81;21031;-66
2021/06/22 09:36:30;;;;;;;21.62;15.65;;;;;;;23.44;91.79;99702.22;2872631;83;21539;-67
2021/06/22 09:40:32;;;;;;;25.12;18.17;;;;;;;23.44;92.27;99697.63;2916008;81;21011;-67
2021/06/22 09:44:34;;;;;;;20.25;15.75;;;;;;;23.50;92.67;99703.50;2916059;81;21085;-66
2021/06/22 09:48:47;;;;;;;22.60;18.02;;;;;;;23.48;92.33;99706.13;2914677;81;21026;-66
2021/06/22 09:52:49;;;;;;;19.92;17.02;;;;;;;23.43;92.60;99712.25;2882622;81;21041;-65
2021/06/22 09:57:04;;;;;;;22.70;17.12;;;;;;;23.42;92.87;99710.59;2898961;81;21054;-66
2021/06/22 10:01:10;;;;;;;;;;;;;;;23.38;93.06;99702.06;2885850;81;21014;-64
2021/06/22 10:05:16;;;;;;;26.10;19.77;;;;;;;23.43;93.08;99714.97;2831692;81;20171;-64
2021/06/22 10:09:26;;;;;;;23.62;17.67;;;;;;;23.57;93.16;99724.30;2899304;81;21845;-65
2021/06/22 10:13:47;;;;;;;21.50;16.57;;;;;;;23.64;93.41;99727.25;2895870;81;21070;-64
2021/06/22 10:17:49;;;;;;;22.95;18.20;;;;;;;23.63;92.06;99737.00;2881915;81;21082;-65
2021/06/22 10:21:53;;;;;;;21.55;17.12;;;;;;;23.58;92.35;99743.61;2904500;81;21058;-63
2021/06/22 10:25:56;;;;;;;20.00;16.55;;;;;;;23.57;92.07;99727.86;2914972;81;21046;-63
2021/06/22 10:30:02;;;;;;;24.65;17.70;;;;;;;23.62;92.18;99733.98;2915319;81;21087;-66
2021/06/22 10:34:04;;;;;;;21.60;17.23;;;;;;;23.62;91.77;99736.70;2911711;81;21050;-64
2021/06/22 10:38:09;;;;;;;18.60;14.30;;;;;;;23.68;92.16;99745.28;2881196;81;21067;-66
2021/06/22 10:42:12;;;;;;;19.62;14.18;;;;;;;23.61;91.40;99754.04;2884688;82;21016;-65
2021/06/22 10:46:18;;;;;;;27.87;14.57;;;;;;;23.46;91.19;99759.81;2852712;82;22208;-64
2021/06/22 10:50:32;;;;;;;13.53;12.18;;;;;;;23.31;91.47;99760.16;2827718;84;21101;-63
2021/06/22 10:54:54;;;;;;;11.50;10.32;;;;;;;23.22;92.24;99765.86;2836309;82;21077;-62
2021/06/22 10:59:21;;;;;;;16.20;13.25;;;;;;;23.18;92.14;99732.06;2927968;80;21030;-67
2021/06/22 11:03:31;;;;;;;17.52;12.58;;;;;;;23.06;92.49;99744.71;2913161;80;21048;-65
2021/06/22 11:07:34;;;;;;;18.32;12.03;;;;;;;23.00;93.25;99751.03;2927811;80;20974;-64
2021/06/22 11:11:35;;;;;;;11.63;10.15;;;;;;;23.06;93.64;99759.63;2915898;80;21018;-64
2021/06/22 11:15:53;;;;;;;14.80;10.82;;;;;;;23.15;93.45;99756.11;2945916;80;21039;-64
2021/06/22 11:20:08;;;;;;;14.53;10.55;;;;;;;23.20;93.32;99751.69;2934672;80;21669;-63
2021/06/22 11:24:29;;;;;;;12.93;9.63;;;;;;;23.14;93.23;99760.70;2934993;80;21555;-63
2021/06/22 11:28:59;;;;;;;8.93;7.55;;;;;;;23.00;93.22;99759.17;2926289;80;21010;-63
2021/06/22 11:33:12;;;;;;;9.23;7.65;;;;;;;22.90;93.47;99770.51;2845794;83;21057;-63
2021/06/22 11:37:20;;;;;;;9.85;6.45;;;;;;;22.75;94.13;99772.16;2875242;80;21006;-64
2021/06/22 11:41:22;;;;;;;7.40;4.62;;;;;;;22.62;94.83;99777.98;2902255;80;20966;-65
2021/06/22 11:45:24;;;;;;;5.45;4.25;;;;;;;22.51;94.88;99777.31;2950362;80;20967;-64
2021/06/22 11:49:46;;;;;;;6.70;5.97;;;;;;;22.43;95.56;99769.42;2950533;80;20924;-65
2021/06/22 11:53:49;;;;;;;5.87;5.28;;;;;;;22.39;95.31;99772.53;2949729;80;21564;-64
2021/06/22 11:57:55;;;;;;;6.35;4.45;;;;;;;22.44;95.58;99780.56;2950316;80;20967;-64
2021/06/22 12:01:58;;;;;;;7.05;6.08;;;;;;;22.51;95.68;99792.22;2950574;80;21261;-64
2021/06/22 12:06:05;;;;;;;11.68;5.08;;;;;;;22.58;95.29;99798.42;2930116;80;21003;-64
2021/06/22 12:10:08;;;;;;;5.62;5.12;;;;;;;22.61;95.38;99795.30;2893400;82;20977;-64
2021/06/22 12:14:13;;;;;;;9.83;5.97;;;;;;;22.64;95.96;99789.95;2806527;83;21004;-64
2021/06/22 12:18:16;;;;;;;6.40;5.75;;;;;;;22.75;95.81;99790.63;2900967;80;21031;-64
2021/06/22 12:22:18;;;;;;;6.20;5.53;;;;;;;22.81;95.40;99791.09;2900840;82;21018;-64
2021/06/22 12:26:20;;;;;;;9.00;6.87;;;;;;;23.05;95.50;99783.73;2900631;82;21018;-63
2021/06/22 12:30:46;;;;;;;10.85;8.93;;;;;;;23.35;94.21;99785.80;2900578;82;24127;-64
2021/06/22 12:34:49;;;;;;;10.98;8.73;;;;;;;23.51;94.11;99787.94;2786222;83;21503;-66
2021/06/22 12:38:59;;;;;;;9.85;8.00;;;;;;;23.75;94.32;99783.23;2851555;83;21060;-63
2021/06/22 12:43:01;;;;;;;9.25;7.70;;;;;;;23.88;91.60;99791.75;2852069;83;21025;-63
2021/06/22 12:47:09;;;;;;;7.72;6.83;;;;;;;24.14;90.31;99777.06;2851860;83;20973;-63
2021/06/22 12:51:13;;;;;;;7.92;7.08;;;;;;;24.52;90.16;99778.65;2851787;83;21053;-64
2021/06/22 12:55:35;;;;;;;7.95;7.22;;;;;;;24.79;89.14;99787.80;2851968;83;21013;-64
2021/06/22 12:59:26;;;;;;;8.85;8.03;;;;;;;25.08;88.43;99796.16;2848352;83;21001;-63
2021/06/22 13:03:23;;;;;;;9.48;8.58;;;;;;;24.95;85.74;99799.89;2850172;83;20994;-63
2021/06/22 13:07:29;;;;;;;9.73;8.73;;;;;;;24.56;86.21;99810.26;2887489;82;21488;-64
2021/06/22 13:11:33;;;;;;;12.05;9.95;;;;;;;24.29;87.93;99813.88;2900608;82;20950;-64
2021/06/22 13:15:36;;;;;;;;;;;;;;;24.00;88.57;99822.55;2902962;82;21430;-64
2021/06/22 13:19:48;;;;;;;8.15;6.85;;;;;;;23.82;89.18;99828.27;2900243;82;20095;-63
2021/06/22 13:23:50;;;;;;;8.65;6.85;;;;;;;23.72;89.47;99828.48;2899786;82;20979;-64
2021/06/22 13:27:55;;;;;;;6.80;6.20;;;;;;;23.59;89.37;99843.83;2900897;82;21334;-64
2021/06/22 13:31:58;;;;;;;6.60;5.90;;;;;;;23.49;88.79;99845.69;2894330;82;21121;-64
2021/06/22 13:36:00;;;;;;;;;;;;;;;23.49;89.64;99844.88;2880267;82;21049;-63
2021/06/22 13:40:08;;;;;;;8.30;6.62;;;;;;;23.46;89.99;99847.50;2852510;83;20140;-64
2021/06/22 13:44:10;;;;;;;6.70;5.90;;;;;;;23.46;90.71;99846.14;2823784;84;21007;-65
2021/06/22 13:48:24;;;;;;;10.00;6.53;;;;;;;23.45;89.82;99847.20;2852935;83;21038;-65
2021/06/22 13:52:26;;;;;;;6.20;5.50;;;;;;;23.35;89.89;99842.78;2823066;83;21022;-63
2021/06/22 13:56:27;;;;;;;8.68;6.47;;;;;;;23.29;90.06;99844.52;2854047;83;21046;-64
2021/06/22 14:00:30;;;;;;;11.73;7.97;;;;;;;23.32;90.31;99855.44;2813179;84;21006;-64
2021/06/22 14:04:32;;;;;;;7.60;6.53;;;;;;;23.33;90.83;99857.09;2853002;83;21054;-64
2021/06/22 14:08:34;;;;;;;8.65;7.75;;;;;;;23.34;90.36;99862.83;2824250;84;21003;-64
2021/06/22 14:12:35;;;;;;;8.10;7.40;;;;;;;23.33;90.56;99876.09;2853513;83;20990;-64
2021/06/22 14:16:37;;;;;;;12.58;8.15;;;;;;;23.19;90.68;99884.31;2823803;84;21082;-65
2021/06/22 14:20:40;;;;;;;8.83;7.42;;;;;;;23.13;91.25;99887.06;2853664;83;21003;-64
2021/06/22 14:24:42;;;;;;;12.40;9.65;;;;;;;23.06;92.54;99884.39;2824335;84;21061;-64
2021/06/22 14:28:44;;;;;;;16.62;11.70;;;;;;;22.96;93.24;99889.75;2853004;83;21028;-64
2021/06/22 14:32:48;;;;;;;10.82;9.73;;;;;;;22.87;94.50;99891.07;2825542;83;21066;-63
2021/06/22 14:36:49;;;;;;;15.38;11.12;;;;;;;22.82;94.65;99894.42;2874744;82;21061;-64
2021/06/22 14:40:53;;;;;;;12.40;10.63;;;;;;;22.77;95.05;99892.05;2873927;82;21031;-64
2021/06/22 14:44:55;;;;;;;14.00;10.88;;;;;;;22.78;95.69;99893.70;2864165;82;21013;-64
2021/06/22 14:48:57;;;;;;;11.80;9.60;;;;;;;22.75;95.06;99900.92;2825074;84;20989;-64
2021/06/22 14:52:58;;;;;;;11.15;9.18;;;;;;;22.68;93.90;99896.88;2825020;83;21028;-64
2021/06/22 14:57:00;;;;;;;9.15;7.47;;;;;;;22.59;93.35;99899.00;2825399;84;21032;-64
2021/06/22 15:01:02;;;;;;;9.30;7.97;;;;;;;22.43;91.61;99903.54;2839412;81;20998;-64
2021/06/22 15:05:06;;;;;;;14.87;6.53;;;;;;;22.25;90.71;99909.92;2825777;84;21045;-64
2021/06/22 15:09:07;;;;;;;11.80;9.98;;;;;;;22.20;91.76;99911.09;2825549;83;21034;-65
2021/06/22 15:13:10;;;;;;;11.90;10.32;;;;;;;22.21;93.86;99904.63;2825571;84;21037;-65
2021/06/22 15:17:11;;;;;;;11.60;10.38;;;;;;;22.14;95.09;99909.75;2818501;84;21077;-64
2021/06/22 15:21:13;;;;;;;15.13;10.23;;;;;;;22.02;95.74;99916.34;2874030;82;21021;-64
2021/06/22 15:25:17;;;;;;;11.08;9.63;;;;;;;21.92;95.70;99927.09;2873980;82;21030;-65
2021/06/22 15:29:25;;;;;;;9.68;8.30;;;;;;;21.87;95.94;99932.81;2887349;81;21018;-64
2021/06/22 15:33:26;;;;;;;10.88;8.63;;;;;;;21.81;95.65;99933.97;2865014;81;21027;-66
2021/06/22 15:37:28;;;;;;;11.63;9.63;;;;;;;21.74;95.53;99941.77;2851650;83;21078;-65
2021/06/22 15:41:30;;;;;;;14.98;9.28;;;;;;;21.62;95.79;99942.35;2850987;83;21065;-65
2021/06/22 15:45:34;;;;;;;10.23;6.87;;;;;;;21.56;95.82;99943.19;2834032;83;20984;-65
2021/06/22 15:49:36;;;;;;;7.85;7.08;;;;;;;21.47;95.79;99941.20;2806932;82;21019;-65
2021/06/22 15:53:38;;;;;;;10.18;7.78;;;;;;;21.38;95.34;99954.59;2823776;83;21054;-65
2021/06/22 15:57:40;;;;;;;12.45;7.70;;;;;;;21.26;95.98;99952.51;2844283;82;21563;-66
2021/06/22 16:01:45;;;;;;;9.08;6.85;;;;;;;21.22;96.75;99951.26;2864214;82;21002;-66
2021/06/22 16:05:45;;;;;;;8.93;7.33;;;;;;;21.21;96.98;99950.91;2873217;81;21047;-65
2021/06/22 16:09:46;;;;;;;9.10;6.70;;;;;;;21.18;97.12;99955.92;2867648;82;21062;-64
2021/06/22 16:13:52;;;;;;;10.05;8.48;;;;;;;21.12;97.01;99950.80;2869368;82;21027;-63
2021/06/22 16:17:52;;;;;;;13.25;10.25;;;;;;;21.06;97.71;99963.79;2876415;82;21599;-63
2021/06/22 16:21:53;;;;;;;11.83;10.43;;;;;;;20.97;98.91;99963.13;2807786;84;21067;-63
2021/06/22 16:25:55;;;;;;;10.18;8.23;;;;;;;20.89;100.00;99964.14;2807374;84;21047;-64
2021/06/22 16:29:57;;;;;;;11.90;8.35;;;;;;;20.91;100.00;99981.49;2752403;86;21026;-64
2021/06/22 16:34:00;;;;;;;7.03;5.60;;;;;;;20.86;100.00;99994.28;2829977;83;21031;-64
2021/06/22 16:38:02;;;;;;;5.95;4.90;;;;;;;20.79;98.94;99998.77;2845129;83;21501;-64
2021/06/22 16:42:06;;;;;;;8.60;6.15;;;;;;;20.72;98.25;100001.97;2844680;83;21007;-64
2021/06/22 16:46:07;;;;;;;5.20;3.95;;;;;;;20.60;98.28;100014.67;2797077;83;21015;-62
2021/06/22 16:50:12;;;;;;;4.30;3.33;;;;;;;20.53;97.95;100009.76;2797420;85;21082;-63
2021/06/22 16:54:14;;;;;;;4.75;4.20;;;;;;;20.52;97.45;100013.49;2749287;86;20988;-63
2021/06/22 16:58:16;;;;;;;5.20;4.65;;;;;;;20.52;97.50;100017.02;2748806;86;21924;-65
2021/06/22 17:02:18;;;;;;;6.53;4.92;;;;;;;20.54;97.58;100019.03;2748744;86;21063;-64
2021/06/22 17:06:19;;;;;;;6.25;5.30;;;;;;;20.61;98.11;100017.70;2748807;86;21039;-63
2021/06/22 17:10:22;;;;;;;8.68;6.15;;;;;;;20.67;98.44;100024.17;2749066;86;21454;-65
2021/06/22 17:14:24;;;;;;;12.45;6.70;;;;;;;20.73;99.24;100024.72;2777279;83;21185;-66
2021/06/22 17:18:26;;;;;;;11.03;8.18;;;;;;;20.82;99.95;100033.03;2851999;83;21055;-65
2021/06/22 17:22:27;;;;;;;17.32;7.92;;;;;;;20.91;100.00;100035.05;2855678;81;21054;-66
2021/06/22 17:26:29;;;;;;;14.93;9.05;;;;;;;20.98;100.00;100032.39;2816792;83;21544;-66
2021/06/22 17:30:31;;;;;;;14.47;9.93;;;;;;;21.02;100.00;100031.45;2846864;83;21039;-65
2021/06/22 17:34:39;;;;;;;20.35;12.73;;;;;;;21.09;100.00;100027.74;2813980;84;21035;-64
2021/06/22 17:38:40;;;;;;;14.10;12.37;;;;;;;21.14;100.00;100019.03;2813555;84;20995;-65
2021/06/22 17:42:43;;;;;;;15.50;10.90;;;;;;;21.18;100.00;100014.88;2814446;84;20995;-65
2021/06/22 17:46:45;;;;;;;14.18;10.88;;;;;;;21.20;100.00;100006.05;2783280;84;21007;-65
2021/06/22 17:50:47;;;;;;;15.65;11.12;;;;;;;21.24;100.00;99997.86;2767652;86;21087;-65
2021/06/22 17:54:49;;;;;;;16.17;14.35;;;;;;;21.30;100.00;99999.43;2767599;86;21019;-66
2021/06/22 17:58:51;;;;;;;23.05;15.05;;;;;;;21.38;100.00;99996.52;2767971;86;21584;-65
2021/06/22 18:02:54;;;;;;;24.40;14.45;;;;;;;21.43;100.00;99987.30;2767549;86;21106;-66
2021/06/22 18:06:56;;;;;;;18.25;14.05;;;;;;;21.46;100.00;99995.00;2809585;83;21067;-65
2021/06/22 18:10:58;;;;;;;20.60;15.85;;;;;;;21.51;100.00;100001.12;2937613;80;21011;-66
2021/06/22 18:15:00;;;;;;;17.25;14.87;;;;;;;21.50;100.00;100007.58;2911222;80;21572;-66
2021/06/22 18:19:02;;;;;;;19.75;14.43;;;;;;;21.44;100.00;100009.76;2825116;84;21012;-67
2021/06/22 18:23:04;;;;;;;20.32;14.70;;;;;;;21.38;100.00;100009.55;2824838;84;21068;-66
2021/06/22 18:27:07;;;;;;;20.43;15.13;;;;;;;21.36;100.00;100005.36;2824550;84;21036;-67
2021/06/22 18:31:11;;;;;;;19.95;14.43;;;;;;;21.33;100.00;100017.95;2824407;83;21036;-67
2021/06/22 18:35:16;;;;;;;17.02;13.15;;;;;;;21.31;100.00;100010.03;2824507;84;21020;-67
2021/06/22 18:39:18;;;;;;;18.67;12.87;;;;;;;21.34;100.00;100018.27;2852312;81;21449;-67
2021/06/22 18:43:20;;;;;;;23.27;15.35;;;;;;;21.35;100.00;100019.93;2924615;81;20999;-66
2021/06/22 18:47:22;;;;;;;18.20;12.68;;;;;;;21.33;100.00;100027.42;2835414;82;21036;-67